Flight Track Log - Related Links

Times and Time Zones

All times are in EDT time to prevent confusion due to time zone crossing. See the EJA951 flight status page for this flight to view local times or setup timezone preferences in your user account.

Time Position Orientation Groundspeed Altitude Reporting Facility
EDT Latitude Longitude Course Direction KTS MPH feet Rate Location/Type
Tue 06:48:05 AM 40.8833 -74.0500 323° Northwest 171 197 2,000  Level New York TRACON
Tue 06:49:05 AM 40.9167 -74.0833 323° Northwest 225 259 4,300 2,050 Climbing New York TRACON
Tue 06:50:05 AM 40.8500 -74.1167 201° Southwest 244 281 6,100 900 Climbing New York TRACON
Tue 06:51:05 AM 40.7833 -74.1500 201° Southwest 287 330 6,100 1,326 Level New York TRACON
Tue 06:53:06 AM 40.6497 -74.2611 212° Southwest 304 350 10,100 2,341 Climbing New York Center
Tue 06:54:07 AM 40.5689 -74.3144 207° Southwest 304 350 13,200 2,150 Climbing New York Center
Tue 06:55:06 AM 40.4817 -74.3072 176° South 304 350 14,400 1,300 Climbing New York Center
Tue 06:56:07 AM 40.3653 -74.2958 176° South 368 423 15,800 1,377 Climbing New York Center
Tue 06:57:08 AM 40.2675 -74.2853 175° South 394 453 17,200 1,412 Climbing New York Center
Tue 06:58:06 AM 40.1431 -74.2683 174° South 406 467 18,600 1,351 Climbing New York Center
Tue 06:59:39 AM 39.9731 -74.2786 183° South 431 496 20,600 1,364 Climbing Washington Center
Tue 07:00:40 AM 39.8844 -74.3828 222° Southwest 405 466 22,100 1,388 Climbing Washington Center
Tue 07:01:40 AM 39.7981 -74.4950 225° Southwest 418 481 23,400 1,587 Climbing Washington Center
Tue 07:02:41 AM 39.7094 -74.6042 223° Southwest 439 505 25,300 1,869 Climbing Washington Center
Tue 07:03:42 AM 39.6206 -74.7133 223° Southwest 439 505 27,200 1,339 Climbing Washington Center
Tue 07:04:42 AM 39.5319 -74.8275 225° Southwest 449 517 28,000 410 Climbing Washington Center
Tue 07:05:39 AM 39.4367 -74.9467 224° Southwest 466 536 28,000  Level Washington Center
Tue 07:06:40 AM 39.3331 -75.0736 223° Southwest 493 567 28,000  Level Washington Center
Tue 07:07:40 AM 39.2064 -75.1550 206° Southwest 503 579 28,000  Level Washington Center
Tue 07:08:42 AM 39.0711 -75.2092 197° South 508 585 28,000  Level Washington Center
Tue 07:09:41 AM 38.9358 -75.2686 199° South 514 592 28,000  Level Washington Center
Tue 07:10:41 AM 38.7983 -75.3225 197° South 519 597 28,000  Level Washington Center
Tue 07:11:42 AM 38.6608 -75.3789 198° South 519 597 28,000  Level Washington Center
Tue 07:12:40 AM 38.5233 -75.4406 199° South 519 597 28,000  Level Washington Center
Tue 07:13:42 AM 38.3836 -75.4964 197° South 519 597 28,000 -151 Level Washington Center
Tue 07:14:39 AM 38.2525 -75.5681 203° Southwest 519 597 27,700 -1,361 Descending Washington Center
Tue 07:15:41 AM 38.1211 -75.6444 205° Southwest 519 597 25,300 -2,479 Descending Washington Center
Tue 07:16:40 AM 37.9958 -75.7314 209° Southwest 496 571 22,700 -2,350 Descending Washington Center
Tue 07:17:41 AM 37.8811 -75.8050 207° Southwest 473 544 20,600 -1,978 Descending Washington Center
Tue 07:18:11 AM 37.8247 -75.8364 204° Southwest 451 519 19,700 -2,066 Descending Washington Center
Tue 07:18:42 AM 37.7661 -75.8703 205° Southwest 467 537 18,500 -2,242 Descending Washington Center
Tue 07:19:42 AM 37.6533 -75.9406 206° Southwest 461 531 16,300 -1,667 Descending Washington Center
Tue 07:20:12 AM 37.5928 -75.9639 197° South 456 525 16,000 -198 Descending Washington Center
Tue 07:21:13 AM 37.4675 -75.9869 188° South 440 506 16,000 -347 Level Washington Center
Tue 07:22:13 AM 37.3631 -76.0778 215° Southwest 449 517 15,300 -1,304 Descending Washington Center
Tue 07:23:08 AM 37.3458 -76.1981 260° West 420 483 13,500 -2,045 Descending Washington Center
Tue 07:23:41 AM 37.3411 -76.2764 266° West 374 430 12,300 -2,022 Descending Washington Center
Tue 07:24:40 AM 37.3403 -76.3989 270° West 369 425 10,400 -1,714 Descending Washington Center
Tue 07:25:40 AM 37.3375 -76.5086 268° West 340 391 8,900 -1,180 Descending Washington Center
Tue 07:26:42 AM 37.3367 -76.6053 269° West 307 353 8,000 -443 Descending Washington Center
Tue 07:27:42 AM 37.3358 -76.7047 269° West 289 333 8,000 -591 Level Washington Center
Tue 07:30:05 AM 37.3500 -76.9500 274° West 281 323 6,000 -739 Descending Potomac TRACON
Tue 07:31:05 AM 37.3667 -77.0333 284° West 282 325 5,500 -800 Descending Potomac TRACON
Tue 07:32:05 AM 37.3833 -77.1333 282° West 255 293 4,400 -1,160 Descending Potomac TRACON
Tue 07:33:04 AM 37.3833 -77.2167 270° West 236 272 3,200 -1,158 Descending Potomac TRACON
Tue 07:33:59 AM 37.4000 -77.2833 287° West 228 262 2,200 -793 Descending Potomac TRACON
Tue 07:35:05 AM 37.4333 -77.3333 310° West 185 213 1,600 -700 Descending Potomac TRACON
Tue 07:35:59 AM 37.4667 -77.3333 360° North 120 138 800 -889 Descending Potomac TRACON
Tue 07:37:00 AM 37.5000 -77.3167 322° Northwest  Level FlightAware Approximate
Tue 07:44:00 AM 37.5052 -77.3197 322° Northwest  Level Estimated
Tue 07:45:00 AM 37.5000 -77.3167 322° Northwest  Level FlightAware Approximate
Tue 07:46:00 AM 37.5052 -77.3197 322° Northwest  Level Estimated
Tue 07:47:00 AM 37.5000 -77.3167 322° Northwest  Level FlightAware Approximate
Tue 07:48:00 AM 37.5052 -77.3197 322° Northwest  Level Estimated

Login

Don't have an account? Register now (free) for customized features, flight alerts, and more!